sensor_id;sensor_type;location;lat;lon;timestamp;pressure;altitude;pressure_sealevel;temperature;humidity
60417;BME280;46263;44.726;10.396;2022-07-29T00:00:47;63966.91;;;-144.34;100.00
60417;BME280;46263;44.726;10.396;2022-07-29T00:04:10;63966.91;;;-144.34;100.00
60417;BME280;46263;44.726;10.396;2022-07-29T00:07:34;63966.91;;;-144.34;100.00
60417;BME280;46263;44.726;10.396;2022-07-29T00:10:58;63966.91;;;-144.34;100.00
60417;BME280;46263;44.726;10.396;2022-07-29T00:14:22;63966.91;;;-144.34;100.00
60417;BME280;46263;44.726;10.396;2022-07-29T00:17:46;63966.91;;;-144.34;100.00
60417;BME280;46263;44.726;10.396;2022-07-29T00:21:09;63966.91;;;-144.34;100.00
60417;BME280;46263;44.726;10.396;2022-07-29T00:24:33;63966.91;;;-144.34;100.00
60417;BME280;46263;44.726;10.396;2022-07-29T00:27:57;63966.91;;;-144.34;100.00
60417;BME280;46263;44.726;10.396;2022-07-29T00:31:21;63966.91;;;-144.34;100.00
60417;BME280;46263;44.726;10.396;2022-07-29T00:34:45;63966.91;;;-144.34;100.00
60417;BME280;46263;44.726;10.396;2022-07-29T00:38:27;63966.91;;;-144.34;100.00
60417;BME280;46263;44.726;10.396;2022-07-29T00:41:51;63966.91;;;-144.34;100.00
60417;BME280;46263;44.726;10.396;2022-07-29T00:45:15;63966.91;;;-144.34;100.00
60417;BME280;46263;44.726;10.396;2022-07-29T00:48:39;63966.91;;;-144.34;100.00
60417;BME280;46263;44.726;10.396;2022-07-29T00:52:04;63966.91;;;-144.34;100.00
60417;BME280;46263;44.726;10.396;2022-07-29T00:55:28;63966.91;;;-144.34;100.00
60417;BME280;46263;44.726;10.396;2022-07-29T00:58:52;63966.91;;;-144.34;100.00
60417;BME280;46263;44.726;10.396;2022-07-29T01:02:17;63966.91;;;-144.34;100.00
60417;BME280;46263;44.726;10.396;2022-07-29T01:05:41;63966.91;;;-144.34;100.00
60417;BME280;46263;44.726;10.396;2022-07-29T01:09:06;63966.91;;;-144.34;100.00
60417;BME280;46263;44.726;10.396;2022-07-29T01:12:30;63966.91;;;-144.34;100.00
60417;BME280;46263;44.726;10.396;2022-07-29T01:15:58;63966.91;;;-144.34;100.00
60417;BME280;46263;44.726;10.396;2022-07-29T01:23:22;63966.91;;;-144.34;100.00
60417;BME280;46263;44.726;10.396;2022-07-29T01:30:15;63966.91;;;-144.34;100.00
60417;BME280;46263;44.726;10.396;2022-07-29T01:33:41;63966.91;;;-144.34;100.00
60417;BME280;46263;44.726;10.396;2022-07-29T01:44:13;63966.91;;;-144.34;100.00
60417;BME280;46263;44.726;10.396;2022-07-29T01:48:00;63966.91;;;-144.34;100.00
60417;BME280;46263;44.726;10.396;2022-07-29T01:51:29;63966.91;;;-144.34;100.00
60417;BME280;46263;44.726;10.396;2022-07-29T01:54:55;63966.91;;;-144.34;100.00
60417;BME280;46263;44.726;10.396;2022-07-29T01:58:20;63966.91;;;-144.34;100.00
60417;BME280;46263;44.726;10.396;2022-07-29T02:01:46;63966.91;;;-144.34;100.00
60417;BME280;46263;44.726;10.396;2022-07-29T02:05:13;63966.91;;;-144.34;100.00
60417;BME280;46263;44.726;10.396;2022-07-29T02:08:38;63966.91;;;-144.34;100.00
60417;BME280;46263;44.726;10.396;2022-07-29T02:12:03;63966.91;;;-144.34;100.00
60417;BME280;46263;44.726;10.396;2022-07-29T02:15:28;63966.91;;;-144.34;100.00
60417;BME280;46263;44.726;10.396;2022-07-29T02:18:52;63966.91;;;-144.34;100.00
60417;BME280;46263;44.726;10.396;2022-07-29T02:22:17;63966.91;;;-144.34;100.00
60417;BME280;46263;44.726;10.396;2022-07-29T02:25:42;63966.91;;;-144.34;100.00
60417;BME280;46263;44.726;10.396;2022-07-29T02:29:06;63966.91;;;-144.34;100.00
60417;BME280;46263;44.726;10.396;2022-07-29T02:32:34;63966.91;;;-144.34;100.00
60417;BME280;46263;44.726;10.396;2022-07-29T02:35:58;63966.91;;;-144.34;100.00
60417;BME280;46263;44.726;10.396;2022-07-29T02:39:23;63966.91;;;-144.34;100.00
60417;BME280;46263;44.726;10.396;2022-07-29T02:42:48;63966.91;;;-144.34;100.00
60417;BME280;46263;44.726;10.396;2022-07-29T02:46:14;63966.91;;;-144.34;100.00
60417;BME280;46263;44.726;10.396;2022-07-29T02:49:41;63966.91;;;-144.34;100.00
60417;BME280;46263;44.726;10.396;2022-07-29T02:53:17;63966.91;;;-144.34;100.00
60417;BME280;46263;44.726;10.396;2022-07-29T02:56:42;63966.91;;;-144.34;100.00
60417;BME280;46263;44.726;10.396;2022-07-29T03:00:08;63966.91;;;-144.34;100.00
60417;BME280;46263;44.726;10.396;2022-07-29T03:03:34;63966.91;;;-144.34;100.00
60417;BME280;46263;44.726;10.396;2022-07-29T03:06:58;63966.91;;;-144.34;100.00
60417;BME280;46263;44.726;10.396;2022-07-29T03:10:25;63966.91;;;-144.34;100.00
60417;BME280;46263;44.726;10.396;2022-07-29T03:13:49;63966.91;;;-144.34;100.00
60417;BME280;46263;44.726;10.396;2022-07-29T03:17:14;63966.91;;;-144.34;100.00
60417;BME280;46263;44.726;10.396;2022-07-29T03:20:38;63966.91;;;-144.34;100.00
60417;BME280;46263;44.726;10.396;2022-07-29T03:24:02;63966.91;;;-144.34;100.00
60417;BME280;46263;44.726;10.396;2022-07-29T03:27:26;63966.91;;;-144.34;100.00
60417;BME280;46263;44.726;10.396;2022-07-29T03:30:49;63966.91;;;-144.34;100.00
60417;BME280;46263;44.726;10.396;2022-07-29T03:34:13;63966.91;;;-144.34;100.00
60417;BME280;46263;44.726;10.396;2022-07-29T03:37:40;63966.91;;;-144.34;100.00
60417;BME280;46263;44.726;10.396;2022-07-29T03:41:07;63966.91;;;-144.34;100.00
60417;BME280;46263;44.726;10.396;2022-07-29T03:44:32;63966.91;;;-144.34;100.00
60417;BME280;46263;44.726;10.396;2022-07-29T03:47:57;63966.91;;;-144.34;100.00
60417;BME280;46263;44.726;10.396;2022-07-29T03:51:22;63966.91;;;-144.34;100.00
60417;BME280;46263;44.726;10.396;2022-07-29T03:54:11;100099.25;;;28.51;65.91
60417;BME280;46263;44.726;10.396;2022-07-29T03:56:40;100219.47;;;22.26;100.00
60417;BME280;46263;44.726;10.396;2022-07-29T03:59:07;100227.94;;;22.02;100.00
60417;BME280;46263;44.726;10.396;2022-07-29T04:01:33;100223.78;;;22.05;100.00
60417;BME280;46263;44.726;10.396;2022-07-29T04:03:59;100227.13;;;22.02;100.00
60417;BME280;46263;44.726;10.396;2022-07-29T04:06:25;100229.88;;;21.88;100.00
60417;BME280;46263;44.726;10.396;2022-07-29T04:08:51;100230.38;;;21.90;100.00
60417;BME280;46263;44.726;10.396;2022-07-29T04:11:16;100242.97;;;21.64;100.00
60417;BME280;46263;44.726;10.396;2022-07-29T04:13:41;100241.03;;;21.78;100.00
60417;BME280;46263;44.726;10.396;2022-07-29T04:16:07;100248.91;;;21.38;100.00
60417;BME280;46263;44.726;10.396;2022-07-29T04:18:32;100246.38;;;21.42;100.00
60417;BME280;46263;44.726;10.396;2022-07-29T04:20:57;100254.66;;;21.37;100.00
60417;BME280;46263;44.726;10.396;2022-07-29T04:23:25;100251.88;;;21.55;100.00
60417;BME280;46263;44.726;10.396;2022-07-29T04:25:51;100254.69;;;21.78;100.00
60417;BME280;46263;44.726;10.396;2022-07-29T04:28:16;100243.97;;;21.81;100.00
60417;BME280;46263;44.726;10.396;2022-07-29T04:30:41;100234.94;;;21.81;100.00
60417;BME280;46263;44.726;10.396;2022-07-29T04:33:07;100248.50;;;21.72;100.00
60417;BME280;46263;44.726;10.396;2022-07-29T04:35:36;100236.97;;;21.89;100.00
60417;BME280;46263;44.726;10.396;2022-07-29T04:38:02;100237.97;;;21.79;100.00
60417;BME280;46263;44.726;10.396;2022-07-29T04:40:27;100236.78;;;21.85;100.00
60417;BME280;46263;44.726;10.396;2022-07-29T04:42:53;100241.44;;;21.85;100.00
60417;BME280;46263;44.726;10.396;2022-07-29T04:45:18;100246.00;;;21.89;100.00
60417;BME280;46263;44.726;10.396;2022-07-29T04:47:43;100245.56;;;21.96;100.00
60417;BME280;46263;44.726;10.396;2022-07-29T04:50:09;100244.25;;;21.94;100.00
60417;BME280;46263;44.726;10.396;2022-07-29T04:52:35;100252.16;;;21.40;100.00
60417;BME280;46263;44.726;10.396;2022-07-29T04:55:00;100250.13;;;21.46;100.00
60417;BME280;46263;44.726;10.396;2022-07-29T04:57:26;100254.41;;;21.79;100.00
60417;BME280;46263;44.726;10.396;2022-07-29T04:59:51;100250.34;;;21.90;100.00
60417;BME280;46263;44.726;10.396;2022-07-29T05:02:16;100253.38;;;22.03;100.00
60417;BME280;46263;44.726;10.396;2022-07-29T05:04:41;100262.19;;;22.13;100.00
60417;BME280;46263;44.726;10.396;2022-07-29T05:07:07;100256.00;;;21.80;100.00
60417;BME280;46263;44.726;10.396;2022-07-29T05:09:32;100264.03;;;21.90;100.00
60417;BME280;46263;44.726;10.396;2022-07-29T05:11:57;100264.53;;;21.93;100.00
60417;BME280;46263;44.726;10.396;2022-07-29T05:14:23;100266.31;;;21.97;100.00
60417;BME280;46263;44.726;10.396;2022-07-29T05:16:48;100272.75;;;22.06;100.00
60417;BME280;46263;44.726;10.396;2022-07-29T05:19:16;100276.88;;;21.90;100.00
60417;BME280;46263;44.726;10.396;2022-07-29T05:21:41;100269.69;;;21.94;100.00
60417;BME280;46263;44.726;10.396;2022-07-29T05:24:06;100276.97;;;21.99;100.00
60417;BME280;46263;44.726;10.396;2022-07-29T05:26:32;100276.50;;;22.10;100.00
60417;BME280;46263;44.726;10.396;2022-07-29T05:28:57;100281.75;;;22.07;100.00
60417;BME280;46263;44.726;10.396;2022-07-29T05:31:22;100289.25;;;22.15;100.00
60417;BME280;46263;44.726;10.396;2022-07-29T05:34:49;63966.91;;;-144.34;100.00
60417;BME280;46263;44.726;10.396;2022-07-29T05:38:13;63966.91;;;-144.34;100.00
60417;BME280;46263;44.726;10.396;2022-07-29T05:41:37;63966.91;;;-144.34;100.00
60417;BME280;46263;44.726;10.396;2022-07-29T05:45:01;63966.91;;;-144.34;100.00
60417;BME280;46263;44.726;10.396;2022-07-29T05:48:34;63966.91;;;-144.34;100.00
60417;BME280;46263;44.726;10.396;2022-07-29T05:52:16;63966.91;;;-144.34;100.00
60417;BME280;46263;44.726;10.396;2022-07-29T05:55:18;100289.25;;;22.15;100.00
60417;BME280;46263;44.726;10.396;2022-07-29T05:58:03;100314.66;;;22.43;100.00
60417;BME280;46263;44.726;10.396;2022-07-29T06:00:32;100319.31;;;22.42;100.00
60417;BME280;46263;44.726;10.396;2022-07-29T06:02:57;100324.06;;;22.50;100.00
60417;BME280;46263;44.726;10.396;2022-07-29T06:05:22;100322.66;;;22.39;100.00
60417;BME280;46263;44.726;10.396;2022-07-29T06:10:35;100312.34;;;22.72;100.00
60417;BME280;46263;44.726;10.396;2022-07-29T06:13:09;100316.19;;;22.71;100.00
60417;BME280;46263;44.726;10.396;2022-07-29T06:16:18;100311.63;;;22.80;100.00
60417;BME280;46263;44.726;10.396;2022-07-29T06:18:47;100317.03;;;22.94;100.00
60417;BME280;46263;44.726;10.396;2022-07-29T06:21:12;100321.91;;;22.97;100.00
60417;BME280;46263;44.726;10.396;2022-07-29T06:23:38;100321.53;;;22.90;100.00
60417;BME280;46263;44.726;10.396;2022-07-29T06:26:14;100329.84;;;22.85;100.00
60417;BME280;46263;44.726;10.396;2022-07-29T06:32:00;100335.06;;;23.09;100.00
60417;BME280;46263;44.726;10.396;2022-07-29T06:34:28;100338.28;;;23.11;100.00
60417;BME280;46263;44.726;10.396;2022-07-29T06:37:08;100340.69;;;23.12;100.00
60417;BME280;46263;44.726;10.396;2022-07-29T06:39:37;100336.09;;;23.21;100.00
60417;BME280;46263;44.726;10.396;2022-07-29T06:42:05;100340.13;;;23.46;100.00
60417;BME280;46263;44.726;10.396;2022-07-29T06:44:31;100336.34;;;23.34;100.00
60417;BME280;46263;44.726;10.396;2022-07-29T06:46:58;100339.41;;;23.32;100.00
60417;BME280;46263;44.726;10.396;2022-07-29T06:49:23;100324.34;;;23.52;100.00
60417;BME280;46263;44.726;10.396;2022-07-29T06:51:49;100327.09;;;23.52;100.00
60417;BME280;46263;44.726;10.396;2022-07-29T06:54:15;100322.97;;;23.41;100.00
60417;BME280;46263;44.726;10.396;2022-07-29T06:56:40;100322.13;;;23.54;100.00
60417;BME280;46263;44.726;10.396;2022-07-29T06:59:07;100332.47;;;23.57;100.00
60417;BME280;46263;44.726;10.396;2022-07-29T07:01:33;100313.31;;;23.66;100.00
60417;BME280;46263;44.726;10.396;2022-07-29T07:03:58;100315.88;;;23.62;100.00
60417;BME280;46263;44.726;10.396;2022-07-29T07:06:23;100316.25;;;23.78;100.00
60417;BME280;46263;44.726;10.396;2022-07-29T07:08:49;100315.97;;;23.88;100.00
60417;BME280;46263;44.726;10.396;2022-07-29T07:11:14;100320.00;;;23.82;100.00
60417;BME280;46263;44.726;10.396;2022-07-29T07:13:39;100319.94;;;23.65;100.00
60417;BME280;46263;44.726;10.396;2022-07-29T07:16:04;100326.50;;;24.03;100.00
60417;BME280;46263;44.726;10.396;2022-07-29T07:18:30;100326.09;;;24.18;100.00
60417;BME280;46263;44.726;10.396;2022-07-29T07:20:56;100328.19;;;24.21;100.00
60417;BME280;46263;44.726;10.396;2022-07-29T07:23:21;100325.47;;;24.30;100.00
60417;BME280;46263;44.726;10.396;2022-07-29T07:25:48;100332.94;;;24.38;100.00
60417;BME280;46263;44.726;10.396;2022-07-29T07:28:13;100333.63;;;24.52;100.00
60417;BME280;46263;44.726;10.396;2022-07-29T07:30:39;100327.63;;;24.59;100.00
60417;BME280;46263;44.726;10.396;2022-07-29T07:33:04;100335.06;;;24.67;100.00
60417;BME280;46263;44.726;10.396;2022-07-29T07:35:29;100324.72;;;24.90;100.00
60417;BME280;46263;44.726;10.396;2022-07-29T07:37:55;100326.66;;;24.89;100.00
60417;BME280;46263;44.726;10.396;2022-07-29T07:40:21;100327.63;;;24.68;100.00
60417;BME280;46263;44.726;10.396;2022-07-29T07:42:46;100326.69;;;24.81;100.00
60417;BME280;46263;44.726;10.396;2022-07-29T07:45:12;100321.66;;;24.48;100.00
60417;BME280;46263;44.726;10.396;2022-07-29T07:47:38;100309.50;;;24.41;100.00
60417;BME280;46263;44.726;10.396;2022-07-29T07:50:05;100319.06;;;24.43;100.00
60417;BME280;46263;44.726;10.396;2022-07-29T07:52:31;100323.91;;;24.72;100.00
60417;BME280;46263;44.726;10.396;2022-07-29T07:54:56;100322.16;;;24.76;100.00
60417;BME280;46263;44.726;10.396;2022-07-29T07:57:21;100311.28;;;25.14;100.00
60417;BME280;46263;44.726;10.396;2022-07-29T07:59:47;100313.22;;;25.14;99.62
60417;BME280;46263;44.726;10.396;2022-07-29T08:02:12;100310.03;;;25.03;97.51
60417;BME280;46263;44.726;10.396;2022-07-29T08:04:37;100303.81;;;25.32;97.06
60417;BME280;46263;44.726;10.396;2022-07-29T08:07:05;100307.78;;;25.61;95.65
60417;BME280;46263;44.726;10.396;2022-07-29T08:09:30;100301.81;;;25.67;92.08
60417;BME280;46263;44.726;10.396;2022-07-29T08:11:56;100305.75;;;25.40;94.05
60417;BME280;46263;44.726;10.396;2022-07-29T08:14:21;100300.19;;;25.57;92.90
60417;BME280;46263;44.726;10.396;2022-07-29T08:16:47;100305.75;;;25.40;92.83
60417;BME280;46263;44.726;10.396;2022-07-29T08:19:12;100300.28;;;25.14;91.53
60417;BME280;46263;44.726;10.396;2022-07-29T08:21:37;100306.09;;;25.21;91.12
60417;BME280;46263;44.726;10.396;2022-07-29T08:24:03;100301.56;;;25.34;86.69
60417;BME280;46263;44.726;10.396;2022-07-29T08:26:47;100311.63;;;25.77;85.67
60417;BME280;46263;44.726;10.396;2022-07-29T08:29:12;100312.44;;;25.77;82.93
60417;BME280;46263;44.726;10.396;2022-07-29T08:31:38;100303.41;;;25.68;81.93
60417;BME280;46263;44.726;10.396;2022-07-29T08:34:04;100297.47;;;25.96;82.93
60417;BME280;46263;44.726;10.396;2022-07-29T08:36:30;100304.19;;;26.07;80.38
60417;BME280;46263;44.726;10.396;2022-07-29T08:38:55;100300.53;;;26.23;79.82
60417;BME280;46263;44.726;10.396;2022-07-29T08:41:21;100300.72;;;26.18;80.03
60417;BME280;46263;44.726;10.396;2022-07-29T08:43:47;100299.91;;;26.47;79.52
60417;BME280;46263;44.726;10.396;2022-07-29T08:46:12;100295.22;;;26.48;79.95
60417;BME280;46263;44.726;10.396;2022-07-29T08:48:37;100294.91;;;26.62;77.36
60417;BME280;46263;44.726;10.396;2022-07-29T08:51:03;100292.38;;;26.36;79.84
60417;BME280;46263;44.726;10.396;2022-07-29T08:53:31;100287.53;;;26.74;76.36
60417;BME280;46263;44.726;10.396;2022-07-29T08:55:57;100288.94;;;26.60;75.72
60417;BME280;46263;44.726;10.396;2022-07-29T08:58:23;100285.16;;;27.06;78.51
60417;BME280;46263;44.726;10.396;2022-07-29T09:00:52;100284.16;;;27.10;76.28
60417;BME280;46263;44.726;10.396;2022-07-29T09:03:19;100283.84;;;27.48;74.43
60417;BME280;46263;44.726;10.396;2022-07-29T09:05:45;100287.13;;;27.17;73.47
60417;BME280;46263;44.726;10.396;2022-07-29T09:08:10;100283.00;;;27.11;70.31
60417;BME280;46263;44.726;10.396;2022-07-29T09:10:36;100287.84;;;27.27;70.24
60417;BME280;46263;44.726;10.396;2022-07-29T09:13:01;100283.75;;;26.58;76.59
60417;BME280;46263;44.726;10.396;2022-07-29T09:15:27;100285.38;;;27.01;75.61
60417;BME280;46263;44.726;10.396;2022-07-29T09:17:52;100279.38;;;26.99;74.57
60417;BME280;46263;44.726;10.396;2022-07-29T09:20:21;100289.19;;;26.87;74.21
60417;BME280;46263;44.726;10.396;2022-07-29T09:22:47;100283.81;;;27.24;74.81
60417;BME280;46263;44.726;10.396;2022-07-29T09:25:14;100281.59;;;27.17;75.05
60417;BME280;46263;44.726;10.396;2022-07-29T09:27:40;100273.69;;;27.61;71.85
60417;BME280;46263;44.726;10.396;2022-07-29T09:30:09;100278.69;;;27.35;71.64
60417;BME280;46263;44.726;10.396;2022-07-29T09:32:59;100269.47;;;27.31;70.55
60417;BME280;46263;44.726;10.396;2022-07-29T09:35:26;100273.88;;;27.56;70.17
60417;BME280;46263;44.726;10.396;2022-07-29T09:37:51;100268.81;;;28.07;69.19
60417;BME280;46263;44.726;10.396;2022-07-29T09:40:19;100268.94;;;27.74;68.97
60417;BME280;46263;44.726;10.396;2022-07-29T09:42:45;100260.34;;;27.63;69.55
60417;BME280;46263;44.726;10.396;2022-07-29T09:45:11;100256.72;;;27.50;69.74
60417;BME280;46263;44.726;10.396;2022-07-29T09:47:46;100253.66;;;28.25;68.97
60417;BME280;46263;44.726;10.396;2022-07-29T09:50:13;100247.03;;;28.82;68.66
60417;BME280;46263;44.726;10.396;2022-07-29T09:52:49;100244.88;;;28.63;66.77
60417;BME280;46263;44.726;10.396;2022-07-29T09:55:14;100242.09;;;28.63;66.75
60417;BME280;46263;44.726;10.396;2022-07-29T09:57:40;100235.78;;;28.10;65.91
60417;BME280;46263;44.726;10.396;2022-07-29T10:00:07;100237.03;;;28.93;65.49
60417;BME280;46263;44.726;10.396;2022-07-29T10:02:33;100237.38;;;29.35;65.06
60417;BME280;46263;44.726;10.396;2022-07-29T10:05:00;100229.34;;;29.46;64.70
60417;BME280;46263;44.726;10.396;2022-07-29T10:07:26;100234.44;;;29.60;62.94
60417;BME280;46263;44.726;10.396;2022-07-29T10:09:55;100230.25;;;28.90;60.54
60417;BME280;46263;44.726;10.396;2022-07-29T10:12:21;100236.63;;;29.22;59.49
60417;BME280;46263;44.726;10.396;2022-07-29T10:14:46;100232.81;;;29.27;58.47
60417;BME280;46263;44.726;10.396;2022-07-29T10:17:12;100231.72;;;29.79;61.10
60417;BME280;46263;44.726;10.396;2022-07-29T10:19:38;100234.81;;;29.42;59.54
60417;BME280;46263;44.726;10.396;2022-07-29T10:22:06;100231.28;;;29.30;58.84
60417;BME280;46263;44.726;10.396;2022-07-29T10:24:32;100220.56;;;29.12;58.71
60417;BME280;46263;44.726;10.396;2022-07-29T10:26:58;100224.41;;;30.02;57.12
60417;BME280;46263;44.726;10.396;2022-07-29T10:29:24;100225.41;;;29.47;56.89
60417;BME280;46263;44.726;10.396;2022-07-29T10:42:21;100209.88;;;30.09;54.98
60417;BME280;46263;44.726;10.396;2022-07-29T10:44:49;100212.81;;;29.34;57.54
60417;BME280;46263;44.726;10.396;2022-07-29T10:47:25;100208.63;;;29.71;56.65
60417;BME280;46263;44.726;10.396;2022-07-29T10:50:00;100212.19;;;30.61;55.32
60417;BME280;46263;44.726;10.396;2022-07-29T10:55:09;100215.09;;;31.10;54.58
60417;BME280;46263;44.726;10.396;2022-07-29T11:00:51;100214.44;;;31.40;53.95
60417;BME280;46263;44.726;10.396;2022-07-29T11:06:00;100204.31;;;31.77;50.42
60417;BME280;46263;44.726;10.396;2022-07-29T11:08:25;100199.66;;;31.59;51.75
60417;BME280;46263;44.726;10.396;2022-07-29T11:10:51;100190.72;;;31.95;50.79
60417;BME280;46263;44.726;10.396;2022-07-29T11:16:02;100188.19;;;32.16;51.07
60417;BME280;46263;44.726;10.396;2022-07-29T11:18:27;100188.38;;;32.61;49.28
60417;BME280;46263;44.726;10.396;2022-07-29T11:20:52;100193.56;;;32.66;50.46
60417;BME280;46263;44.726;10.396;2022-07-29T11:31:19;100179.94;;;32.53;48.94
60417;BME280;46263;44.726;10.396;2022-07-29T11:33:44;100164.91;;;32.25;47.27
60417;BME280;46263;44.726;10.396;2022-07-29T11:36:13;100170.81;;;31.93;46.98
60417;BME280;46263;44.726;10.396;2022-07-29T11:38:39;100163.19;;;31.86;47.32
60417;BME280;46263;44.726;10.396;2022-07-29T11:43:49;100156.00;;;32.45;46.77
60417;BME280;46263;44.726;10.396;2022-07-29T11:46:18;100158.81;;;33.27;49.03
60417;BME280;46263;44.726;10.396;2022-07-29T11:49:02;100169.03;;;33.12;49.75
60417;BME280;46263;44.726;10.396;2022-07-29T11:51:27;100160.03;;;33.29;47.60
60417;BME280;46263;44.726;10.396;2022-07-29T11:53:52;100149.22;;;32.76;46.85
60417;BME280;46263;44.726;10.396;2022-07-29T11:56:20;100147.50;;;32.68;48.84
60417;BME280;46263;44.726;10.396;2022-07-29T11:58:46;100146.56;;;32.53;45.82
60417;BME280;46263;44.726;10.396;2022-07-29T12:01:17;100145.72;;;33.27;48.32
60417;BME280;46263;44.726;10.396;2022-07-29T12:03:43;100140.94;;;33.86;48.55
60417;BME280;46263;44.726;10.396;2022-07-29T12:06:12;100144.06;;;33.26;46.43
60417;BME280;46263;44.726;10.396;2022-07-29T12:08:40;100140.44;;;33.15;46.10
60417;BME280;46263;44.726;10.396;2022-07-29T12:11:14;100142.25;;;34.06;44.20
60417;BME280;46263;44.726;10.396;2022-07-29T12:13:39;100135.06;;;34.12;45.70
60417;BME280;46263;44.726;10.396;2022-07-29T12:16:05;100127.06;;;33.35;45.02
60417;BME280;46263;44.726;10.396;2022-07-29T12:18:30;100131.44;;;33.98;43.63
60417;BME280;46263;44.726;10.396;2022-07-29T12:20:56;100135.59;;;33.60;44.93
60417;BME280;46263;44.726;10.396;2022-07-29T12:23:23;100134.22;;;33.98;43.39
60417;BME280;46263;44.726;10.396;2022-07-29T12:25:48;100133.03;;;33.95;45.34
60417;BME280;46263;44.726;10.396;2022-07-29T12:28:14;100128.00;;;34.36;42.84
60417;BME280;46263;44.726;10.396;2022-07-29T12:30:48;100125.66;;;34.35;42.35
60417;BME280;46263;44.726;10.396;2022-07-29T12:33:24;100120.22;;;33.83;39.65
60417;BME280;46263;44.726;10.396;2022-07-29T12:35:50;100124.34;;;34.18;42.76
60417;BME280;46263;44.726;10.396;2022-07-29T12:38:16;100124.84;;;34.34;41.84
60417;BME280;46263;44.726;10.396;2022-07-29T12:40:43;100124.56;;;35.10;42.87
60417;BME280;46263;44.726;10.396;2022-07-29T12:43:15;100126.09;;;34.72;41.43
60417;BME280;46263;44.726;10.396;2022-07-29T12:45:43;100110.50;;;34.39;42.22
60417;BME280;46263;44.726;10.396;2022-07-29T12:48:08;100102.38;;;33.99;45.38
60417;BME280;46263;44.726;10.396;2022-07-29T12:50:34;100085.03;;;34.69;44.02
60417;BME280;46263;44.726;10.396;2022-07-29T12:53:10;100071.09;;;35.01;45.75
60417;BME280;46263;44.726;10.396;2022-07-29T12:55:40;100076.25;;;34.46;42.87
60417;BME280;46263;44.726;10.396;2022-07-29T12:58:05;100076.66;;;34.48;43.16
60417;BME280;46263;44.726;10.396;2022-07-29T13:00:30;100060.75;;;34.84;41.70
60417;BME280;46263;44.726;10.396;2022-07-29T13:02:56;100051.06;;;33.31;43.91
60417;BME280;46263;44.726;10.396;2022-07-29T13:05:22;100053.91;;;33.41;44.00
60417;BME280;46263;44.726;10.396;2022-07-29T13:07:47;100059.03;;;32.81;45.02
60417;BME280;46263;44.726;10.396;2022-07-29T13:10:14;100068.28;;;32.18;46.39
60417;BME280;46263;44.726;10.396;2022-07-29T13:13:00;100059.44;;;31.72;49.27
60417;BME280;46263;44.726;10.396;2022-07-29T13:15:25;100052.19;;;32.31;47.38
60417;BME280;46263;44.726;10.396;2022-07-29T13:17:50;100055.88;;;31.48;49.92
60417;BME280;46263;44.726;10.396;2022-07-29T13:20:17;100054.53;;;31.65;50.33
60417;BME280;46263;44.726;10.396;2022-07-29T13:22:42;100050.38;;;31.52;51.42
60417;BME280;46263;44.726;10.396;2022-07-29T13:25:15;100039.19;;;31.45;50.47
60417;BME280;46263;44.726;10.396;2022-07-29T13:27:48;100030.66;;;31.31;50.56
60417;BME280;46263;44.726;10.396;2022-07-29T13:30:13;100027.69;;;31.16;52.78
60417;BME280;46263;44.726;10.396;2022-07-29T13:32:38;100049.19;;;30.74;54.72
60417;BME280;46263;44.726;10.396;2022-07-29T13:35:05;100060.16;;;30.67;52.63
60417;BME280;46263;44.726;10.396;2022-07-29T13:37:30;100044.06;;;30.76;54.18
60417;BME280;46263;44.726;10.396;2022-07-29T13:39:57;100033.19;;;30.90;51.69
60417;BME280;46263;44.726;10.396;2022-07-29T13:42:24;100041.28;;;30.53;54.39
60417;BME280;46263;44.726;10.396;2022-07-29T13:44:49;100034.75;;;30.65;54.28
60417;BME280;46263;44.726;10.396;2022-07-29T13:47:16;100036.09;;;30.29;54.92
60417;BME280;46263;44.726;10.396;2022-07-29T13:49:42;100042.38;;;30.26;56.01
60417;BME280;46263;44.726;10.396;2022-07-29T13:52:07;100038.91;;;30.32;55.42
60417;BME280;46263;44.726;10.396;2022-07-29T13:54:32;100040.41;;;30.07;56.46
60417;BME280;46263;44.726;10.396;2022-07-29T13:57:00;100038.34;;;30.00;56.71
60417;BME280;46263;44.726;10.396;2022-07-29T13:59:26;100062.19;;;29.35;61.70
60417;BME280;46263;44.726;10.396;2022-07-29T14:01:51;100089.94;;;28.44;73.35
60417;BME280;46263;44.726;10.396;2022-07-29T14:04:16;100109.13;;;27.97;82.05
60417;BME280;46263;44.726;10.396;2022-07-29T14:06:41;100086.00;;;26.43;88.96
60417;BME280;46263;44.726;10.396;2022-07-29T14:09:07;100129.97;;;25.47;82.10
60417;BME280;46263;44.726;10.396;2022-07-29T14:11:33;100115.22;;;25.22;90.28
60417;BME280;46263;44.726;10.396;2022-07-29T14:13:59;100058.47;;;25.18;100.00
60417;BME280;46263;44.726;10.396;2022-07-29T14:16:24;100022.34;;;25.90;100.00
60417;BME280;46263;44.726;10.396;2022-07-29T14:18:49;100000.97;;;27.95;100.00
60417;BME280;46263;44.726;10.396;2022-07-29T14:21:15;99986.97;;;28.31;100.00
60417;BME280;46263;44.726;10.396;2022-07-29T14:23:40;99988.88;;;28.15;97.27
60417;BME280;46263;44.726;10.396;2022-07-29T14:26:06;99991.16;;;28.25;100.00
60417;BME280;46263;44.726;10.396;2022-07-29T14:28:31;99987.91;;;27.79;100.00
60417;BME280;46263;44.726;10.396;2022-07-29T14:30:56;100002.38;;;27.61;97.45
60417;BME280;46263;44.726;10.396;2022-07-29T14:33:22;99997.66;;;27.49;96.76